Time;durP1;ratioP1;P1;durP2;ratioP2;P2;SDS_P1;SDS_P2;PMS_P1;PMS_P2;Temp;Humidity;BMP_temperature;BMP_pressure;BME280_temperature;BME280_humidity;BME280_pressure;Samples;Min_cycle;Max_cycle;Signal;HPM_P1;HPM_P2
2021/10/04 00:01:34;;;;;;;5.13;4.63;;;17.70;99.90;;;;;;5094578;28;20277;-71
2021/10/04 00:04:00;;;;;;;6.60;4.80;;;17.70;99.90;;;;;;5094483;28;20255;-71
2021/10/04 00:06:25;;;;;;;6.27;4.73;;;17.80;99.90;;;;;;5094319;28;20194;-71
2021/10/04 00:08:51;;;;;;;5.60;4.40;;;17.80;99.90;;;;;;5094376;28;20728;-71
2021/10/04 00:11:16;;;;;;;6.97;4.70;;;17.80;99.90;;;;;;5094137;28;20172;-70
2021/10/04 00:13:42;;;;;;;5.20;4.40;;;17.90;99.90;;;;;;5093949;28;20639;-70
2021/10/04 00:16:07;;;;;;;4.43;4.00;;;17.90;99.90;;;;;;5094026;28;20257;-71
2021/10/04 00:18:33;;;;;;;7.20;4.60;;;17.90;99.90;;;;;;5093937;28;20188;-71
2021/10/04 00:20:59;;;;;;;5.40;4.10;;;18.00;99.90;;;;;;5093817;28;20170;-71
2021/10/04 00:23:24;;;;;;;6.47;5.43;;;17.90;99.90;;;;;;5093907;28;20413;-71
2021/10/04 00:25:50;;;;;;;5.63;4.13;;;17.90;99.90;;;;;;5094329;28;20199;-72
2021/10/04 00:28:16;;;;;;;4.80;3.57;;;17.90;99.90;;;;;;5093982;28;20662;-71
2021/10/04 00:30:41;;;;;;;4.47;3.93;;;17.90;99.90;;;;;;5093995;28;20414;-71
2021/10/04 00:33:07;;;;;;;5.30;4.73;;;17.90;99.90;;;;;;5093852;28;20290;-70
2021/10/04 00:35:33;;;;;;;6.10;4.57;;;17.90;99.90;;;;;;5093515;28;20279;-70
2021/10/04 00:37:58;;;;;;;5.67;5.03;;;17.80;99.90;;;;;;5093663;28;20172;-71
2021/10/04 00:40:29;;;;;;;4.40;3.93;;;17.90;99.90;;;;;;5093372;28;20182;-71
2021/10/04 00:42:55;;;;;;;5.00;4.10;;;17.80;99.90;;;;;;5092997;28;20176;-71
2021/10/04 00:45:22;;;;;;;6.40;4.00;;;17.80;99.90;;;;;;5092804;28;20955;-70
2021/10/04 00:47:48;;;;;;;4.73;4.03;;;17.80;99.90;;;;;;5093176;28;20450;-71
2021/10/04 00:50:16;;;;;;;6.20;4.10;;;17.80;99.90;;;;;;5093148;28;20507;-71
2021/10/04 00:52:42;;;;;;;4.97;4.47;;;17.70;99.90;;;;;;5092837;28;20666;-72
2021/10/04 00:55:09;;;;;;;5.80;4.30;;;17.70;99.90;;;;;;5092825;28;20401;-71
2021/10/04 00:57:36;;;;;;;5.20;3.63;;;17.70;99.90;;;;;;5091580;28;20169;-71
2021/10/04 01:00:08;;;;;;;5.80;4.30;;;17.70;99.90;;;;;;5092704;28;20824;-71
2021/10/04 01:02:33;;;;;;;4.03;3.10;;;17.70;99.90;;;;;;5092835;28;20410;-70
2021/10/04 01:04:59;;;;;;;4.20;3.77;;;17.70;99.90;;;;;;5092463;28;20417;-71
2021/10/04 01:07:24;;;;;;;4.47;4.00;;;17.70;99.90;;;;;;5092424;28;20172;-71
2021/10/04 01:09:50;;;;;;;6.10;4.40;;;17.70;99.90;;;;;;5092381;28;20180;-70
2021/10/04 01:12:17;;;;;;;5.40;3.93;;;17.60;99.90;;;;;;5092476;28;20196;-71
2021/10/04 01:14:42;;;;;;;4.37;3.97;;;17.60;99.90;;;;;;5092358;28;20243;-71
2021/10/04 01:17:08;;;;;;;6.13;4.20;;;17.50;99.90;;;;;;5092271;28;20447;-70
2021/10/04 01:19:38;;;;;;;7.33;4.40;;;17.50;99.90;;;;;;5092341;28;20173;-71
2021/10/04 01:22:03;;;;;;;4.60;3.93;;;17.40;99.90;;;;;;5092319;28;20176;-71
2021/10/04 01:24:29;;;;;;;4.00;3.47;;;17.40;99.90;;;;;;5092218;28;20418;-71
2021/10/04 01:26:54;;;;;;;4.60;4.20;;;17.40;99.90;;;;;;5092476;28;20237;-71
2021/10/04 01:29:20;;;;;;;3.63;3.20;;;17.40;99.90;;;;;;5092281;28;20233;-71
2021/10/04 01:31:46;;;;;;;3.87;3.53;;;17.30;99.90;;;;;;5089172;28;20658;-71
2021/10/04 01:34:12;;;;;;;6.27;3.30;;;17.30;99.90;;;;;;5092538;28;20520;-72
2021/10/04 01:36:37;;;;;;;4.03;3.20;;;17.30;99.90;;;;;;5092142;28;20438;-71
2021/10/04 01:39:03;;;;;;;4.63;3.50;;;17.30;99.90;;;;;;5090799;28;20169;-71
2021/10/04 01:41:28;;;;;;;2.80;2.50;;;17.20;99.90;;;;;;5092129;28;20651;-70
2021/10/04 01:43:54;;;;;;;3.77;2.90;;;17.20;99.90;;;;;;5092000;28;20176;-72
2021/10/04 01:46:20;;;;;;;3.33;2.70;;;17.20;99.90;;;;;;5091986;28;20196;-72
2021/10/04 01:48:45;;;;;;;3.70;2.63;;;17.20;99.90;;;;;;5092230;28;20600;-71
2021/10/04 01:51:11;;;;;;;2.90;2.00;;;17.10;99.90;;;;;;5091743;28;20492;-71
2021/10/04 01:53:37;;;;;;;3.10;2.80;;;17.10;99.90;;;;;;5091874;28;20698;-69
2021/10/04 01:56:03;;;;;;;2.77;2.43;;;17.00;99.90;;;;;;5091987;28;20202;-71
2021/10/04 01:58:30;;;;;;;2.70;2.50;;;17.00;99.90;;;;;;5091897;28;20157;-71
2021/10/04 02:01:01;;;;;;;2.70;2.37;;;16.90;99.90;;;;;;5091500;28;20947;-71
2021/10/04 02:03:27;;;;;;;2.93;2.00;;;16.90;99.90;;;;;;5091916;28;20489;-71
2021/10/04 02:05:53;;;;;;;2.93;2.10;;;16.80;99.90;;;;;;5091710;28;20456;-71
2021/10/04 02:08:19;;;;;;;2.60;2.03;;;16.70;99.90;;;;;;5091767;28;20938;-70
2021/10/04 02:10:45;;;;;;;2.33;2.13;;;16.70;99.90;;;;;;5091667;28;20505;-71
2021/10/04 02:13:11;;;;;;;2.27;2.10;;;16.70;99.90;;;;;;5091699;28;20256;-71
2021/10/04 02:15:38;;;;;;;2.43;1.93;;;16.70;99.90;;;;;;5091788;28;20430;-71
2021/10/04 02:18:05;;;;;;;1.80;1.67;;;16.70;99.90;;;;;;5091517;28;20504;-71
2021/10/04 02:20:33;;;;;;;1.77;1.67;;;16.70;99.90;;;;;;5091311;28;20402;-71
2021/10/04 02:23:05;;;;;;;2.83;1.93;;;16.70;99.90;;;;;;5091417;28;20787;-70
2021/10/04 02:25:33;;;;;;;1.70;1.60;;;16.60;99.90;;;;;;5091344;28;20508;-71
2021/10/04 02:27:58;;;;;;;1.80;1.70;;;16.40;99.90;;;;;;5091448;28;20412;-71
2021/10/04 02:30:24;;;;;;;1.60;1.47;;;16.40;99.90;;;;;;5091212;28;20499;-69
2021/10/04 02:32:51;;;;;;;2.43;1.30;;;16.40;99.90;;;;;;5091114;28;20192;-69
2021/10/04 02:35:17;;;;;;;1.40;1.30;;;16.30;99.90;;;;;;5090972;28;20422;-70
2021/10/04 02:37:42;;;;;;;0.80;0.80;;;16.20;99.90;;;;;;5091191;28;20410;-71
2021/10/04 02:40:09;;;;;;;1.00;0.90;;;16.30;99.90;;;;;;5091305;28;20400;-70
2021/10/04 02:42:36;;;;;;;1.30;1.20;;;16.20;99.90;;;;;;5091313;28;20288;-70
2021/10/04 02:45:04;;;;;;;1.20;1.10;;;16.20;99.90;;;;;;5091103;28;20405;-71
2021/10/04 02:47:29;;;;;;;1.47;0.97;;;16.20;99.90;;;;;;5091233;28;20470;-71
2021/10/04 02:49:55;;;;;;;1.10;1.00;;;16.10;99.90;;;;;;5091138;28;20413;-70
2021/10/04 02:52:21;;;;;;;1.50;1.03;;;16.10;99.90;;;;;;5091090;28;20245;-70
2021/10/04 02:54:47;;;;;;;1.00;0.93;;;16.10;99.90;;;;;;5091093;28;20159;-71
2021/10/04 02:57:12;;;;;;;0.70;0.70;;;16.00;99.90;;;;;;5091235;28;20462;-71
2021/10/04 02:59:38;;;;;;;0.90;0.90;;;16.00;99.90;;;;;;5091420;28;20259;-71
2021/10/04 03:02:04;;;;;;;1.13;1.03;;;16.00;99.90;;;;;;5091484;28;20694;-71
2021/10/04 03:04:29;;;;;;;1.07;0.97;;;16.00;99.90;;;;;;5090949;28;20499;-71
2021/10/04 03:06:55;;;;;;;1.00;0.90;;;16.00;99.90;;;;;;5091198;28;20197;-71
2021/10/04 03:09:21;;;;;;;1.10;1.00;;;16.00;99.90;;;;;;5091209;28;20537;-71
2021/10/04 03:11:46;;;;;;;0.70;0.70;;;16.00;99.90;;;;;;5090912;28;20200;-71
2021/10/04 03:14:12;;;;;;;1.23;0.77;;;15.90;99.90;;;;;;5091045;28;20170;-71
2021/10/04 03:16:37;;;;;;;0.70;0.70;;;15.90;99.90;;;;;;5090939;28;20238;-71
2021/10/04 03:19:03;;;;;;;0.90;0.90;;;15.90;99.90;;;;;;5091096;28;20175;-69
2021/10/04 03:21:29;;;;;;;0.60;0.60;;;15.90;99.90;;;;;;5090864;28;20183;-71
2021/10/04 03:23:54;;;;;;;1.03;0.77;;;15.80;99.90;;;;;;5090953;28;20172;-71
2021/10/04 03:26:20;;;;;;;1.20;0.90;;;15.80;99.90;;;;;;5090830;28;20272;-71
2021/10/04 03:28:46;;;;;;;0.93;0.83;;;15.80;99.90;;;;;;5091158;28;20257;-70
2021/10/04 03:31:12;;;;;;;2.40;1.20;;;15.80;99.90;;;;;;5090787;28;20169;-69
2021/10/04 03:33:37;;;;;;;1.20;1.10;;;15.70;99.90;;;;;;5094226;28;20213;-71
2021/10/04 03:36:03;;;;;;;0.80;0.80;;;15.70;99.90;;;;;;5094105;28;20665;-73
2021/10/04 03:38:29;;;;;;;1.00;0.80;;;15.70;99.90;;;;;;5094687;28;20172;-71
2021/10/04 03:40:54;;;;;;;0.60;0.60;;;15.60;99.90;;;;;;5094512;28;20892;-70
2021/10/04 03:43:20;;;;;;;1.00;0.90;;;15.60;99.90;;;;;;5094467;28;20667;-70
2021/10/04 03:45:45;;;;;;;1.13;1.00;;;15.50;99.90;;;;;;5094483;28;20185;-71
2021/10/04 03:48:11;;;;;;;0.77;0.77;;;15.60;99.90;;;;;;5093200;28;20555;-71
2021/10/04 03:50:36;;;;;;;1.60;0.97;;;15.50;99.90;;;;;;5094236;28;20203;-71
2021/10/04 03:53:02;;;;;;;0.93;0.83;;;15.50;99.90;;;;;;5094039;28;20205;-70
2021/10/04 03:55:28;;;;;;;0.97;0.87;;;15.40;99.90;;;;;;5094099;28;20402;-71
2021/10/04 03:57:53;;;;;;;1.33;0.87;;;15.40;99.90;;;;;;5094408;28;20167;-72
2021/10/04 04:00:21;;;;;;;1.17;1.00;;;15.40;99.90;;;;;;5094049;28;20694;-71
2021/10/04 04:02:47;;;;;;;1.13;0.80;;;15.30;99.90;;;;;;5094354;28;20171;-71
2021/10/04 04:05:13;;;;;;;1.90;1.13;;;15.20;99.90;;;;;;5094371;28;20462;-69
2021/10/04 04:07:38;;;;;;;0.70;0.70;;;15.10;99.90;;;;;;5094094;28;20922;-71
2021/10/04 04:10:05;;;;;;;1.37;0.80;;;15.10;99.90;;;;;;5093846;28;20418;-71
2021/10/04 04:12:31;;;;;;;0.70;0.70;;;15.00;99.90;;;;;;5093674;28;20194;-70
2021/10/04 04:14:57;;;;;;;1.20;0.80;;;15.00;99.90;;;;;;5093599;28;20414;-70
2021/10/04 04:17:22;;;;;;;0.97;0.83;;;14.90;99.90;;;;;;5093973;28;20876;-71
2021/10/04 04:19:48;;;;;;;0.70;0.70;;;14.90;99.90;;;;;;5094024;28;20174;-71
2021/10/04 04:22:13;;;;;;;0.70;0.60;;;14.90;99.90;;;;;;5094066;28;20178;-71
2021/10/04 04:24:39;;;;;;;1.07;0.80;;;14.90;99.90;;;;;;5093438;28;20186;-70
2021/10/04 04:27:06;;;;;;;1.00;0.90;;;14.90;99.90;;;;;;5093468;28;20277;-71
2021/10/04 04:29:33;;;;;;;0.90;0.80;;;14.80;99.90;;;;;;5093522;28;20268;-71
2021/10/04 04:31:59;;;;;;;0.87;0.87;;;14.80;99.90;;;;;;5093177;28;20452;-71
2021/10/04 04:34:24;;;;;;;0.60;0.60;;;14.90;99.90;;;;;;5093316;28;20400;-71
2021/10/04 04:36:49;;;;;;;1.10;0.80;;;14.90;99.90;;;;;;5093258;28;20182;-71
2021/10/04 04:39:15;;;;;;;1.27;1.00;;;14.90;99.90;;;;;;5093273;28;20518;-71
2021/10/04 04:41:40;;;;;;;0.80;0.77;;;14.90;99.90;;;;;;5093276;28;20179;-71
2021/10/04 04:44:06;;;;;;;1.70;1.23;;;14.90;99.90;;;;;;5093235;28;20521;-71
2021/10/04 04:46:32;;;;;;;0.80;0.80;;;14.80;99.90;;;;;;5093394;28;20277;-69
2021/10/04 04:48:57;;;;;;;1.13;0.80;;;14.70;99.90;;;;;;5093594;28;20641;-71
2021/10/04 04:51:23;;;;;;;0.67;0.67;;;14.60;99.90;;;;;;5093171;28;20542;-74
2021/10/04 04:53:48;;;;;;;1.17;0.70;;;14.60;99.90;;;;;;5093193;28;20223;-71
2021/10/04 04:56:15;;;;;;;1.80;0.77;;;14.60;99.90;;;;;;5093453;28;20736;-73
2021/10/04 04:58:41;;;;;;;0.80;0.60;;;14.60;99.90;;;;;;5093031;28;20166;-71
2021/10/04 05:01:06;;;;;;;0.60;0.60;;;14.60;99.90;;;;;;5092697;28;20408;-71
2021/10/04 05:03:32;;;;;;;0.60;0.60;;;14.50;99.90;;;;;;5092909;28;20518;-70
2021/10/04 05:05:57;;;;;;;0.70;0.60;;;14.50;99.90;;;;;;5092654;28;20196;-71
2021/10/04 05:08:23;;;;;;;0.70;0.70;;;14.50;99.90;;;;;;5092731;28;20198;-71
2021/10/04 05:10:48;;;;;;;1.20;0.70;;;14.50;99.90;;;;;;5092837;28;20287;-72
2021/10/04 05:13:14;;;;;;;0.90;0.87;;;14.50;99.90;;;;;;5092678;28;20259;-71
2021/10/04 05:15:39;;;;;;;0.80;0.73;;;14.40;99.90;;;;;;5092685;28;20225;-71
2021/10/04 05:18:05;;;;;;;0.80;0.70;;;14.40;99.90;;;;;;5092943;28;20173;-71
2021/10/04 05:20:31;;;;;;;0.80;0.80;;;14.40;99.90;;;;;;5092989;28;20162;-72
2021/10/04 05:22:56;;;;;;;0.87;0.80;;;14.40;99.90;;;;;;5092998;28;20708;-72
2021/10/04 05:25:22;;;;;;;2.70;0.77;;;14.40;99.90;;;;;;5092678;28;20194;-72
2021/10/04 05:27:47;;;;;;;0.90;0.70;;;14.50;99.90;;;;;;5092709;28;20182;-73
2021/10/04 05:30:13;;;;;;;0.60;0.60;;;14.50;99.90;;;;;;5092701;28;20499;-71
2021/10/04 05:32:38;;;;;;;1.27;0.80;;;14.50;99.90;;;;;;5092386;28;20202;-72
2021/10/04 05:35:06;;;;;;;0.93;0.70;;;14.40;99.90;;;;;;5093065;28;20624;-73
2021/10/04 05:37:31;;;;;;;1.00;0.70;;;14.40;99.90;;;;;;5094122;28;20609;-75
2021/10/04 05:39:57;;;;;;;0.60;0.60;;;14.40;99.90;;;;;;5092475;28;20408;-74
2021/10/04 05:42:22;;;;;;;0.97;0.87;;;14.40;99.90;;;;;;5091742;28;20431;-72
2021/10/04 05:44:49;;;;;;;0.70;0.70;;;14.40;99.90;;;;;;5091661;28;20177;-72
2021/10/04 05:47:15;;;;;;;1.77;0.87;;;14.30;99.90;;;;;;5091793;28;20221;-72
2021/10/04 05:49:40;;;;;;;0.70;0.70;;;14.40;99.90;;;;;;5091943;28;20431;-72
2021/10/04 05:52:06;;;;;;;1.03;0.90;;;14.40;99.90;;;;;;5091680;28;20443;-72
2021/10/04 05:54:32;;;;;;;0.90;0.70;;;14.40;99.90;;;;;;5091171;28;20180;-73
2021/10/04 05:56:57;;;;;;;0.80;0.67;;;14.50;99.90;;;;;;5090996;28;20431;-72
2021/10/04 05:59:23;;;;;;;0.63;0.63;;;14.40;99.90;;;;;;5088227;28;20165;-73
2021/10/04 06:01:49;;;;;;;2.30;0.93;;;14.40;99.90;;;;;;5091857;28;20188;-73
2021/10/04 06:04:14;;;;;;;0.60;0.60;;;14.40;99.90;;;;;;5092452;28;20176;-73
2021/10/04 06:06:39;;;;;;;0.90;0.80;;;14.40;99.90;;;;;;5093139;28;20216;-74
2021/10/04 06:09:05;;;;;;;0.70;0.70;;;14.40;99.90;;;;;;5092013;28;20178;-73
2021/10/04 06:11:31;;;;;;;0.70;0.70;;;14.50;99.90;;;;;;5091983;28;20165;-73
2021/10/04 06:13:57;;;;;;;0.77;0.77;;;14.50;99.90;;;;;;5091395;28;20161;-72
2021/10/04 06:16:23;;;;;;;2.57;0.80;;;14.40;99.90;;;;;;5092498;28;20326;-72
2021/10/04 06:18:48;;;;;;;1.00;0.80;;;14.50;99.90;;;;;;5091699;28;20519;-72
2021/10/04 06:21:13;;;;;;;0.70;0.67;;;14.50;99.90;;;;;;5092075;28;20716;-72
2021/10/04 06:23:39;;;;;;;0.80;0.80;;;14.50;99.90;;;;;;5091647;28;20174;-73
2021/10/04 06:26:05;;;;;;;1.03;0.73;;;14.60;99.90;;;;;;5091508;28;20209;-73
2021/10/04 06:28:30;;;;;;;0.80;0.80;;;14.50;99.90;;;;;;5091144;28;20184;-73
2021/10/04 06:30:56;;;;;;;1.30;0.90;;;14.60;99.90;;;;;;5090825;28;20408;-73
2021/10/04 06:33:21;;;;;;;0.60;0.60;;;14.60;99.90;;;;;;5077879;28;20209;-72
2021/10/04 06:35:47;;;;;;;0.60;0.60;;;14.70;99.90;;;;;;5070744;28;20213;-73
2021/10/04 06:38:13;;;;;;;0.80;0.67;;;14.60;99.90;;;;;;5071923;28;20171;-71
2021/10/04 06:40:39;;;;;;;0.60;0.60;;;14.60;99.90;;;;;;5071154;28;20174;-73
2021/10/04 06:43:04;;;;;;;1.30;0.80;;;14.60;99.90;;;;;;5071307;28;20734;-73
2021/10/04 06:45:30;;;;;;;0.80;0.70;;;14.50;99.90;;;;;;5069993;28;20194;-73
2021/10/04 06:47:55;;;;;;;0.70;0.60;;;14.60;99.90;;;;;;5071607;28;20227;-72
2021/10/04 06:50:21;;;;;;;1.30;0.90;;;14.60;99.90;;;;;;5071841;28;20605;-73
2021/10/04 06:52:46;;;;;;;0.70;0.70;;;14.50;99.90;;;;;;5071595;28;20482;-72
2021/10/04 06:55:12;;;;;;;0.70;0.70;;;14.60;99.90;;;;;;5071369;28;20167;-72
2021/10/04 06:57:39;;;;;;;0.80;0.80;;;14.70;99.90;;;;;;5071424;28;20250;-72
2021/10/04 07:00:07;;;;;;;1.20;0.80;;;14.80;99.90;;;;;;5087967;28;20257;-73
2021/10/04 07:02:33;;;;;;;0.70;0.70;;;14.70;99.90;;;;;;5091193;28;20408;-73
2021/10/04 07:04:59;;;;;;;0.80;0.80;;;14.70;99.90;;;;;;5091292;28;20768;-75
2021/10/04 07:07:25;;;;;;;0.70;0.70;;;14.70;99.90;;;;;;5093383;28;20178;-73
2021/10/04 07:09:50;;;;;;;0.63;0.60;;;14.60;99.90;;;;;;5095491;28;20412;-73
2021/10/04 07:12:16;;;;;;;2.00;0.80;;;14.60;99.90;;;;;;5095288;28;20231;-72
2021/10/04 07:14:52;;;;;;;0.70;0.60;;;14.60;99.90;;;;;;5095433;28;20663;-72
2021/10/04 07:17:33;;;;;;;1.00;0.80;;;14.70;99.90;;;;;;5094627;28;20212;-71
2021/10/04 07:20:13;;;;;;;0.83;0.70;;;14.70;99.90;;;;;;5081867;28;20415;-71
2021/10/04 07:22:49;;;;;;;0.90;0.77;;;14.80;99.90;;;;;;5073604;28;20423;-72
2021/10/04 07:25:15;;;;;;;0.70;0.63;;;14.60;99.90;;;;;;5073416;28;21105;-71
2021/10/04 07:27:44;;;;;;;0.80;0.60;;;14.70;99.90;;;;;;5074999;28;20404;-71
2021/10/04 07:30:10;;;;;;;1.13;1.03;;;14.60;99.90;;;;;;5076452;28;20182;-72
2021/10/04 07:32:36;;;;;;;0.63;0.60;;;14.70;99.90;;;;;;5094829;28;20984;-72
2021/10/04 07:35:02;;;;;;;0.70;0.60;;;14.70;99.90;;;;;;5094940;28;20407;-72
2021/10/04 07:37:57;;;;;;;1.23;0.90;;;14.60;99.90;;;;;;5093668;28;20169;-71
2021/10/04 07:40:27;;;;;;;0.90;0.80;;;14.60;99.90;;;;;;5094973;28;20392;-71
2021/10/04 07:42:53;;;;;;;0.90;0.80;;;14.60;99.90;;;;;;5091579;28;21173;-70
2021/10/04 07:45:21;;;;;;;1.13;0.80;;;14.50;99.90;;;;;;5074284;28;20431;-70
2021/10/04 07:47:50;;;;;;;1.67;1.10;;;14.50;99.90;;;;;;5074514;28;20770;-71
2021/10/04 07:50:18;;;;;;;1.40;0.77;;;14.50;99.90;;;;;;5066147;28;20423;-71
2021/10/04 07:52:45;;;;;;;1.10;0.80;;;14.50;99.90;;;;;;5093093;28;20517;-71
2021/10/04 07:55:11;;;;;;;0.90;0.90;;;14.90;99.90;;;;;;5094404;28;20487;-71
2021/10/04 07:57:38;;;;;;;1.10;0.97;;;14.70;99.90;;;;;;5094623;28;20764;-71
2021/10/04 08:00:05;;;;;;;1.33;0.83;;;14.80;99.90;;;;;;5093998;28;20767;-71
2021/10/04 08:02:48;;;;;;;0.70;0.70;;;14.80;99.90;;;;;;5094233;28;20414;-71
2021/10/04 08:05:14;;;;;;;1.00;0.90;;;14.90;99.90;;;;;;5093452;28;20784;-71
2021/10/04 08:07:42;;;;;;;0.80;0.80;;;14.90;99.90;;;;;;5095411;28;20440;-71
2021/10/04 08:10:11;;;;;;;1.23;0.90;;;15.00;99.90;;;;;;5091320;28;20421;-71
2021/10/04 08:12:38;;;;;;;0.90;0.70;;;15.20;99.90;;;;;;5094145;28;20447;-71
2021/10/04 08:15:05;;;;;;;1.20;0.90;;;15.40;99.90;;;;;;5093970;28;20483;-72
2021/10/04 08:17:30;;;;;;;0.90;0.90;;;15.60;99.90;;;;;;5092971;28;20775;-71
2021/10/04 08:19:56;;;;;;;1.00;0.93;;;15.80;99.90;;;;;;5094215;28;20405;-71
2021/10/04 08:22:21;;;;;;;1.20;1.10;;;16.10;99.90;;;;;;5091285;28;20434;-70
2021/10/04 08:24:47;;;;;;;3.23;1.10;;;16.20;99.90;;;;;;5073696;28;20223;-71
2021/10/04 08:27:40;;;;;;;0.77;0.77;;;16.20;99.90;;;;;;5074092;28;20538;-70
2021/10/04 08:30:06;;;;;;;0.80;0.70;;;16.50;99.90;;;;;;5058667;28;20700;-71
2021/10/04 08:32:35;;;;;;;0.63;0.60;;;16.10;99.90;;;;;;5077616;28;20465;-71
2021/10/04 08:35:03;;;;;;;3.33;0.80;;;15.70;99.90;;;;;;5094046;28;20424;-70
2021/10/04 08:37:32;;;;;;;0.60;0.60;;;15.60;99.90;;;;;;5093913;28;20405;-70
2021/10/04 08:39:59;;;;;;;0.80;0.80;;;15.40;99.90;;;;;;5094072;28;20401;-69
2021/10/04 08:42:25;;;;;;;0.70;0.70;;;15.30;99.90;;;;;;5092682;28;20417;-72
2021/10/04 08:44:51;;;;;;;1.67;0.90;;;15.30;99.90;;;;;;5093553;28;20405;-70
2021/10/04 08:47:17;;;;;;;0.77;0.77;;;15.50;99.90;;;;;;5093375;28;20439;-70
2021/10/04 08:49:42;;;;;;;1.20;0.90;;;15.50;99.90;;;;;;5093973;28;20408;-71
2021/10/04 08:52:08;;;;;;;0.80;0.70;;;15.40;99.90;;;;;;5093589;28;20269;-71
2021/10/04 08:54:34;;;;;;;0.90;0.80;;;15.50;99.90;;;;;;5093272;28;20585;-71
2021/10/04 08:56:59;;;;;;;0.80;0.80;;;15.30;99.90;;;;;;5093744;28;20190;-70
2021/10/04 08:59:26;;;;;;;1.23;0.70;;;15.30;99.90;;;;;;5093445;28;20923;-70
2021/10/04 09:02:19;;;;;;;0.70;0.63;;;15.20;99.90;;;;;;5092003;28;20170;-70
2021/10/04 09:04:44;;;;;;;1.17;0.63;;;15.40;99.90;;;;;;5093042;28;20440;-70
2021/10/04 09:07:09;;;;;;;0.93;0.70;;;15.00;99.90;;;;;;5091996;28;20888;-71
2021/10/04 09:09:52;;;;;;;0.70;0.63;;;15.00;99.90;;;;;;5092242;28;20182;-71
2021/10/04 09:12:21;;;;;;;0.90;0.70;;;15.00;99.90;;;;;;5073308;28;20287;-71
2021/10/04 09:14:49;;;;;;;1.20;0.97;;;15.10;99.90;;;;;;5092901;28;20444;-71
2021/10/04 09:17:14;;;;;;;1.10;0.80;;;15.20;99.90;;;;;;5092927;28;20463;-71
2021/10/04 09:19:45;;;;;;;1.17;1.07;;;15.30;99.90;;;;;;5092836;28;20419;-71
2021/10/04 09:22:16;;;;;;;1.03;0.90;;;15.50;99.90;;;;;;5093159;28;20163;-71
2021/10/04 09:25:02;;;;;;;1.50;1.07;;;15.40;99.90;;;;;;5092862;28;20433;-71
2021/10/04 09:27:38;;;;;;;1.20;0.90;;;15.30;99.90;;;;;;5093397;28;20404;-71
2021/10/04 09:30:16;;;;;;;2.00;1.10;;;15.40;99.90;;;;;;5091771;28;20404;-71
2021/10/04 09:32:50;;;;;;;1.03;0.80;;;15.30;99.90;;;;;;5093030;28;20460;-71
2021/10/04 09:35:30;;;;;;;1.23;1.10;;;15.20;99.90;;;;;;5092585;28;20718;-70
2021/10/04 09:37:58;;;;;;;2.33;1.20;;;15.20;99.90;;;;;;5092736;28;20865;-70
2021/10/04 09:40:40;;;;;;;2.37;1.10;;;15.40;99.90;;;;;;5092498;28;20928;-70
2021/10/04 09:43:24;;;;;;;0.70;0.70;;;15.40;99.90;;;;;;5089953;28;20409;-70
2021/10/04 09:46:08;;;;;;;1.93;1.83;;;15.40;99.90;;;;;;5059799;28;20523;-70
2021/10/04 09:48:34;;;;;;;1.07;0.90;;;15.40;99.90;;;;;;5089356;28;20467;-71
2021/10/04 09:51:13;;;;;;;0.80;0.80;;;15.50;99.90;;;;;;5091598;28;20435;-70
2021/10/04 09:53:39;;;;;;;1.37;0.80;;;15.40;99.90;;;;;;5090932;28;20969;-71
2021/10/04 09:56:04;;;;;;;1.00;0.90;;;15.60;99.90;;;;;;5092375;28;20431;-71
2021/10/04 09:58:35;;;;;;;1.90;1.20;;;15.80;99.90;;;;;;5092146;28;20619;-71
2021/10/04 10:01:03;;;;;;;2.00;1.17;;;15.70;99.90;;;;;;5091064;28;20183;-73
2021/10/04 10:03:42;;;;;;;0.97;0.87;;;15.60;99.90;;;;;;5091377;28;20430;-72
2021/10/04 10:06:07;;;;;;;1.40;1.30;;;15.70;99.90;;;;;;5090488;28;20463;-73
2021/10/04 10:08:34;;;;;;;3.17;2.30;;;15.40;99.90;;;;;;5091599;28;20427;-70
2021/10/04 10:11:04;;;;;;;1.90;0.90;;;15.40;99.90;;;;;;5083266;28;20215;-73
2021/10/04 10:13:31;;;;;;;1.23;1.00;;;15.60;99.90;;;;;;5083971;28;20502;-70
2021/10/04 10:16:09;;;;;;;1.03;0.93;;;15.60;99.90;;;;;;5085087;28;20444;-70
2021/10/04 10:18:40;;;;;;;1.43;1.10;;;15.70;99.90;;;;;;5083155;28;20437;-70
2021/10/04 10:21:08;;;;;;;1.00;0.90;;;15.80;99.90;;;;;;5084123;28;20467;-70
2021/10/04 10:23:55;;;;;;;1.57;0.90;;;16.00;99.90;;;;;;5082059;28;20779;-70
2021/10/04 10:26:28;;;;;;;1.53;0.90;;;16.00;99.90;;;;;;5088620;28;20783;-70
2021/10/04 10:29:09;;;;;;;1.17;0.97;;;15.80;99.90;;;;;;5090730;28;20498;-70
2021/10/04 10:32:04;;;;;;;1.00;0.90;;;15.80;99.90;;;;;;5081630;28;20425;-70
2021/10/04 10:34:30;;;;;;;0.80;0.70;;;15.90;99.90;;;;;;5081036;28;20492;-70
2021/10/04 10:37:07;;;;;;;1.17;0.87;;;16.10;99.90;;;;;;5081821;28;20525;-70
2021/10/04 10:39:36;;;;;;;2.90;1.70;;;16.20;99.90;;;;;;5081134;28;20181;-70
2021/10/04 10:42:23;;;;;;;1.33;0.97;;;16.10;99.90;;;;;;5090662;28;20548;-70
2021/10/04 10:44:58;;;;;;;0.77;0.77;;;16.30;99.90;;;;;;5087800;28;20461;-70
2021/10/04 10:50:16;;;;;;;1.50;1.40;;;16.30;99.90;;;;;;5094796;28;20419;-70
2021/10/04 10:52:44;;;;;;;2.33;1.23;;;16.30;99.90;;;;;;5088767;28;20552;-70
2021/10/04 10:55:19;;;;;;;1.53;0.90;;;16.20;99.90;;;;;;5093739;28;20428;-71
2021/10/04 10:57:50;;;;;;;1.10;1.07;;;15.90;99.90;;;;;;5090373;28;20425;-70
2021/10/04 11:00:27;;;;;;;2.63;1.20;;;15.90;99.90;;;;;;5086362;28;20458;-71
2021/10/04 11:03:04;;;;;;;3.53;1.00;;;16.10;99.90;;;;;;5089869;28;20453;-70
2021/10/04 11:05:38;;;;;;;1.00;0.90;;;16.30;99.90;;;;;;5087041;28;20421;-70
2021/10/04 11:08:30;;;;;;;1.20;1.07;;;16.20;99.90;;;;;;5095570;28;20444;-70
2021/10/04 11:10:56;;;;;;;1.47;1.13;;;16.20;99.90;;;;;;5095466;28;20402;-69
2021/10/04 11:13:35;;;;;;;2.10;1.03;;;16.40;99.90;;;;;;5095391;28;20453;-69
2021/10/04 11:16:31;;;;;;;1.00;0.90;;;16.30;99.90;;;;;;5095276;28;20276;-70
2021/10/04 11:18:56;;;;;;;1.50;1.20;;;16.40;99.90;;;;;;5095331;28;20490;-70
2021/10/04 11:21:25;;;;;;;1.23;1.00;;;16.30;99.90;;;;;;5095234;28;20463;-70
2021/10/04 11:23:53;;;;;;;3.23;1.00;;;16.00;99.90;;;;;;5074945;28;20184;-70
2021/10/04 11:26:22;;;;;;;1.33;1.23;;;16.10;99.90;;;;;;5092111;28;20463;-70
2021/10/04 11:28:57;;;;;;;2.03;1.27;;;16.10;99.90;;;;;;5078528;28;20406;-70
2021/10/04 11:31:25;;;;;;;1.30;1.20;;;16.00;99.90;;;;;;5074825;28;20403;-70
2021/10/04 11:33:54;;;;;;;1.43;1.20;;;16.20;99.90;;;;;;5089190;28;20461;-70
2021/10/04 11:36:25;;;;;;;1.53;1.30;;;16.10;99.90;;;;;;5094304;28;20424;-70
2021/10/04 11:38:51;;;;;;;1.50;1.40;;;16.20;99.90;;;;;;5094680;28;20417;-70
2021/10/04 11:41:25;;;;;;;1.20;1.00;;;16.40;99.90;;;;;;5093795;28;20416;-70
2021/10/04 11:43:56;;;;;;;1.70;0.93;;;16.50;99.90;;;;;;5094403;28;20171;-70
2021/10/04 11:46:26;;;;;;;1.30;0.80;;;16.40;99.90;;;;;;5093985;28;21125;-70
2021/10/04 11:49:02;;;;;;;1.57;1.17;;;16.10;99.90;;;;;;5089260;28;21098;-70
2021/10/04 11:51:28;;;;;;;1.67;1.13;;;16.20;99.90;;;;;;5092631;28;20441;-70
2021/10/04 11:53:55;;;;;;;2.33;1.17;;;16.40;99.90;;;;;;5092818;28;20451;-70
2021/10/04 11:56:21;;;;;;;1.73;1.07;;;16.40;99.90;;;;;;5094462;28;20798;-70
2021/10/04 11:58:56;;;;;;;1.90;1.10;;;16.10;99.90;;;;;;5094148;28;20417;-70
2021/10/04 12:01:33;;;;;;;3.43;1.20;;;16.10;99.90;;;;;;5094236;28;20410;-70
2021/10/04 12:04:00;;;;;;;1.40;0.97;;;16.30;99.90;;;;;;5094128;28;20909;-70
2021/10/04 12:06:28;;;;;;;0.80;0.80;;;16.30;99.90;;;;;;5094183;28;21059;-70
2021/10/04 12:08:54;;;;;;;1.80;1.37;;;16.20;99.90;;;;;;5094155;28;20415;-70
2021/10/04 12:11:19;;;;;;;1.13;1.03;;;15.80;99.90;;;;;;5093382;28;20420;-70
2021/10/04 12:13:45;;;;;;;2.27;1.07;;;15.90;99.90;;;;;;5093655;28;20633;-70
2021/10/04 12:16:13;;;;;;;1.00;0.83;;;15.90;99.90;;;;;;5093953;28;20197;-69
2021/10/04 12:18:51;;;;;;;2.13;0.90;;;15.60;99.90;;;;;;5094141;28;20253;-70
2021/10/04 12:21:26;;;;;;;1.37;1.20;;;15.70;99.90;;;;;;5093965;28;20413;-70
2021/10/04 12:24:04;;;;;;;1.23;1.03;;;15.70;99.90;;;;;;5094015;28;20788;-70
2021/10/04 12:26:30;;;;;;;1.00;0.80;;;15.70;99.90;;;;;;5094030;28;20427;-70
2021/10/04 12:28:55;;;;;;;0.90;0.90;;;15.70;99.90;;;;;;5076561;28;20413;-70
2021/10/04 12:31:31;;;;;;;1.20;1.00;;;15.70;99.90;;;;;;5073514;28;20178;-70
2021/10/04 12:33:58;;;;;;;1.67;1.00;;;15.80;99.90;;;;;;5089127;28;20199;-70
2021/10/04 12:36:24;;;;;;;1.70;1.40;;;15.90;99.90;;;;;;5093809;28;20462;-70
2021/10/04 12:38:51;;;;;;;1.20;1.10;;;16.00;99.90;;;;;;5093222;28;20444;-70
2021/10/04 12:41:17;;;;;;;1.30;1.20;;;16.00;99.90;;;;;;5093584;28;20500;-71
2021/10/04 12:43:43;;;;;;;1.13;1.03;;;15.70;99.90;;;;;;5093275;28;20508;-71
2021/10/04 12:46:12;;;;;;;1.50;1.40;;;15.70;99.90;;;;;;5093579;28;20695;-71
2021/10/04 12:48:42;;;;;;;2.87;0.87;;;15.40;99.90;;;;;;5093647;28;20581;-71
2021/10/04 12:51:09;;;;;;;2.17;1.00;;;15.30;99.90;;;;;;5089386;28;20798;-71
2021/10/04 12:53:50;;;;;;;1.30;1.20;;;15.20;99.90;;;;;;5093256;28;20452;-71
2021/10/04 12:56:22;;;;;;;1.27;1.10;;;15.20;99.90;;;;;;5093228;28;20876;-71